Time;durP1;ratioP1;P1;durP2;ratioP2;P2;SDS_P1;SDS_P2;PMS_P1;PMS_P2;Temp;Humidity;BMP_temperature;BMP_pressure;BME280_temperature;BME280_humidity;BME280_pressure;Samples;Min_cycle;Max_cycle;Signal;HPM_P1;HPM_P2
2022/05/08 00:01:05;;;;;;;5.23;1.20;;;19.10;99.90;;;;;;5091532;28;20182;-67
2022/05/08 00:03:32;;;;;;;4.23;0.80;;;19.10;99.90;;;;;;5090858;28;20360;-67
2022/05/08 00:06:06;;;;;;;4.67;1.27;;;19.80;99.90;;;;;;5091462;28;20183;-67
2022/05/08 00:08:34;;;;;;;5.13;1.20;;;19.50;99.90;;;;;;5091642;28;20587;-68
2022/05/08 00:11:02;;;;;;;3.40;0.90;;;19.40;99.90;;;;;;5094447;28;20224;-68
2022/05/08 00:13:31;;;;;;;1.43;0.80;;;19.50;99.90;;;;;;5094495;28;20172;-68
2022/05/08 00:16:00;;;;;;;1.80;0.70;;;19.60;99.90;;;;;;5094934;28;20175;-68
2022/05/08 00:18:27;;;;;;;1.27;0.90;;;19.90;99.90;;;;;;5094437;28;20176;-67
2022/05/08 00:20:55;;;;;;;1.53;1.00;;;19.80;99.90;;;;;;5094792;28;20163;-68
2022/05/08 00:23:23;;;;;;;3.03;0.93;;;20.00;99.90;;;;;;5094298;28;20285;-68
2022/05/08 00:25:50;;;;;;;2.13;1.13;;;20.10;99.90;;;;;;5094809;28;20178;-67
2022/05/08 00:28:18;;;;;;;3.37;0.80;;;20.10;99.90;;;;;;5094303;28;20641;-67
2022/05/08 00:30:46;;;;;;;1.83;0.50;;;19.70;99.90;;;;;;5094617;28;20797;-68
2022/05/08 00:33:14;;;;;;;4.37;0.80;;;19.90;99.90;;;;;;5094023;28;20176;-66
2022/05/08 00:35:42;;;;;;;0.90;0.50;;;20.00;99.90;;;;;;5074311;28;20669;-67
2022/05/08 00:38:09;;;;;;;1.93;0.70;;;20.10;99.90;;;;;;5076555;28;20198;-67
2022/05/08 00:40:38;;;;;;;1.13;0.57;;;19.90;99.90;;;;;;5094499;28;20929;-67
2022/05/08 00:43:25;;;;;;;2.53;0.60;;;19.90;99.90;;;;;;5094011;28;20172;-66
2022/05/08 00:45:53;;;;;;;1.53;0.40;;;20.30;99.90;;;;;;5094454;28;20599;-67
2022/05/08 00:48:21;;;;;;;1.40;0.50;;;20.60;99.90;;;;;;5092920;28;20171;-66
2022/05/08 00:50:50;;;;;;;2.30;0.60;;;20.20;99.90;;;;;;5093833;28;20249;-66
2022/05/08 00:53:18;;;;;;;1.00;0.40;;;20.60;99.90;;;;;;5093920;28;20179;-67
2022/05/08 00:55:47;;;;;;;4.03;0.43;;;20.60;99.90;;;;;;5094087;28;20230;-66
2022/05/08 00:58:16;;;;;;;1.50;0.50;;;20.60;99.90;;;;;;5093690;28;20183;-66
2022/05/08 01:00:43;;;;;;;3.37;0.70;;;20.70;99.90;;;;;;5094092;28;20221;-68
2022/05/08 01:03:14;;;;;;;0.90;0.50;;;21.20;99.90;;;;;;5092269;28;20269;-67
2022/05/08 01:05:43;;;;;;;1.33;0.80;;;21.30;99.90;;;;;;5092598;28;20210;-66
2022/05/08 01:08:12;;;;;;;1.97;0.60;;;21.80;99.90;;;;;;5073425;28;20233;-66
2022/05/08 01:10:40;;;;;;;2.93;0.70;;;21.40;99.90;;;;;;5080502;28;20210;-66
2022/05/08 01:13:08;;;;;;;0.90;0.60;;;21.30;99.90;;;;;;5093648;28;20181;-67
2022/05/08 01:15:44;;;;;;;2.13;0.50;;;21.50;99.90;;;;;;5093557;28;20191;-67
2022/05/08 01:18:12;;;;;;;1.37;0.40;;;20.30;99.90;;;;;;5093611;28;20224;-67
2022/05/08 01:20:42;;;;;;;2.73;0.50;;;21.00;99.90;;;;;;5092765;28;20182;-67
2022/05/08 01:23:15;;;;;;;0.60;0.50;;;21.30;99.90;;;;;;5093418;28;20285;-68
2022/05/08 01:25:56;;;;;;;2.10;0.50;;;20.60;99.90;;;;;;5093223;28;20188;-68
2022/05/08 01:28:25;;;;;;;1.80;0.40;;;21.40;99.90;;;;;;5093000;28;20276;-67
2022/05/08 01:30:54;;;;;;;7.20;0.70;;;20.80;99.90;;;;;;5093031;28;20218;-68
2022/05/08 01:33:23;;;;;;;1.47;0.80;;;21.60;99.90;;;;;;5092873;28;20183;-67
2022/05/08 01:35:52;;;;;;;0.77;0.40;;;22.00;99.90;;;;;;5092975;28;20183;-68
2022/05/08 01:38:24;;;;;;;1.57;0.40;;;21.60;99.90;;;;;;5091524;28;20671;-68
2022/05/08 01:40:51;;;;;;;1.07;0.50;;;21.70;99.90;;;;;;5092732;28;20588;-67
2022/05/08 01:43:20;;;;;;;1.80;0.40;;;22.00;99.90;;;;;;5092572;28;20190;-66
2022/05/08 01:45:48;;;;;;;1.30;0.70;;;22.30;99.90;;;;;;5092676;28;20190;-66
2022/05/08 01:48:27;;;;;;;0.80;0.43;;;22.20;99.90;;;;;;5092566;28;20664;-66
2022/05/08 01:50:57;;;;;;;1.63;0.57;;;21.50;99.90;;;;;;5092810;28;20218;-66
2022/05/08 01:53:33;;;;;;;1.23;0.43;;;21.20;99.90;;;;;;5091566;28;20183;-65
2022/05/08 01:56:02;;;;;;;3.47;0.83;;;21.90;99.90;;;;;;5086945;28;20221;-67
2022/05/08 01:58:31;;;;;;;4.03;0.70;;;22.10;99.90;;;;;;5093708;28;20174;-67
2022/05/08 02:01:02;;;;;;;1.90;0.57;;;22.20;99.90;;;;;;5094031;28;20175;-67
2022/05/08 02:03:31;;;;;;;2.70;0.60;;;21.80;99.90;;;;;;5094050;28;20246;-67
2022/05/08 02:05:58;;;;;;;1.63;1.00;;;22.20;99.90;;;;;;5093983;28;20235;-67
2022/05/08 02:08:26;;;;;;;3.80;0.80;;;22.70;99.90;;;;;;5093557;28;20182;-67
2022/05/08 02:10:54;;;;;;;1.73;0.97;;;21.90;99.90;;;;;;5094346;28;20575;-67
2022/05/08 02:13:22;;;;;;;2.23;0.40;;;22.00;99.90;;;;;;5093906;28;20622;-67
2022/05/08 02:15:50;;;;;;;0.80;0.33;;;22.40;99.90;;;;;;5093536;28;20186;-67
2022/05/08 02:18:17;;;;;;;1.80;0.80;;;22.80;99.90;;;;;;5093488;28;20636;-67
2022/05/08 02:20:45;;;;;;;2.67;0.60;;;23.00;99.90;;;;;;5093546;28;20175;-67
2022/05/08 02:23:13;;;;;;;0.93;0.50;;;23.50;99.90;;;;;;5093247;28;20252;-67
2022/05/08 02:25:42;;;;;;;0.40;0.33;;;23.00;99.90;;;;;;5093446;28;20691;-68
2022/05/08 02:28:10;;;;;;;2.80;0.50;;;22.80;99.90;;;;;;5092361;28;20172;-66
2022/05/08 02:30:37;;;;;;;2.30;0.60;;;22.90;99.90;;;;;;5093002;28;20218;-67
2022/05/08 02:33:05;;;;;;;3.70;0.60;;;23.20;99.90;;;;;;5092805;28;20659;-67
2022/05/08 02:35:34;;;;;;;4.33;0.50;;;23.20;99.90;;;;;;5092873;28;20179;-67
2022/05/08 02:38:02;;;;;;;0.63;0.40;;;23.20;99.90;;;;;;5092849;28;20583;-67
2022/05/08 02:40:29;;;;;;;5.50;0.50;;;23.10;99.90;;;;;;5091990;28;20628;-68
2022/05/08 02:42:57;;;;;;;1.30;0.50;;;23.70;99.90;;;;;;5093384;28;20171;-68
2022/05/08 02:45:25;;;;;;;0.73;0.57;;;23.60;99.90;;;;;;5093349;28;20660;-68
2022/05/08 02:47:52;;;;;;;3.53;0.50;;;23.30;99.90;;;;;;5093075;28;20236;-67
2022/05/08 02:50:21;;;;;;;0.80;0.50;;;23.80;99.90;;;;;;5092996;28;20621;-67
2022/05/08 02:52:48;;;;;;;2.47;0.40;;;24.10;99.90;;;;;;5092558;28;20236;-65
2022/05/08 03:00:49;;;;;;;1.13;0.50;;;23.70;99.90;;;;;;5093167;28;20589;-66
2022/05/08 03:03:17;;;;;;;1.43;0.40;;;23.90;99.80;;;;;;5091525;28;20179;-67
2022/05/08 03:05:47;;;;;;;2.13;0.60;;;24.40;99.90;;;;;;5092838;28;20583;-67
2022/05/08 03:08:17;;;;;;;2.23;0.60;;;24.20;99.90;;;;;;5092743;28;20517;-67
2022/05/08 03:13:35;;;;;;;2.40;0.80;;;24.10;99.90;;;;;;5092998;28;20198;-67
2022/05/08 03:16:07;;;;;;;2.20;0.60;;;24.50;98.20;;;;;;5092755;28;20190;-65
2022/05/08 03:18:38;;;;;;;6.40;1.37;;;24.60;96.40;;;;;;5092648;28;20171;-65
2022/05/08 03:21:06;;;;;;;1.60;0.80;;;24.50;97.40;;;;;;5092817;28;20175;-66
2022/05/08 03:23:34;;;;;;;0.50;0.40;;;24.80;98.70;;;;;;5091075;28;20629;-67
2022/05/08 03:26:04;;;;;;;1.83;0.43;;;24.80;97.40;;;;;;5092765;28;20183;-66
2022/05/08 03:28:32;;;;;;;1.30;0.40;;;25.00;94.80;;;;;;5092485;28;20256;-67
2022/05/08 03:31:00;;;;;;;2.03;0.60;;;24.00;94.40;;;;;;5092565;28;20207;-67
2022/05/08 03:33:32;;;;;;;2.37;0.43;;;23.60;97.40;;;;;;5092771;28;20529;-66
2022/05/08 03:36:00;;;;;;;1.73;0.60;;;24.70;99.90;;;;;;5092546;28;20641;-67
2022/05/08 03:38:28;;;;;;;2.17;0.60;;;24.60;95.40;;;;;;5092546;28;20232;-67
2022/05/08 03:40:56;;;;;;;2.40;0.50;;;24.00;95.20;;;;;;5091359;28;20221;-66
2022/05/08 03:43:24;;;;;;;1.23;0.60;;;24.30;96.80;;;;;;5094369;28;20171;-66
2022/05/08 03:45:52;;;;;;;1.40;0.40;;;24.60;96.70;;;;;;5095215;28;20183;-67
2022/05/08 03:48:21;;;;;;;0.40;0.30;;;24.60;96.50;;;;;;5096217;28;20206;-67
2022/05/08 03:50:49;;;;;;;1.27;0.50;;;24.50;95.10;;;;;;5096222;28;20256;-67
2022/05/08 03:53:17;;;;;;;4.30;0.83;;;24.60;95.10;;;;;;5096172;28;20175;-66
2022/05/08 03:55:44;;;;;;;1.13;0.40;;;25.00;95.20;;;;;;5095839;28;20231;-67
2022/05/08 03:58:12;;;;;;;0.93;0.40;;;24.70;96.30;;;;;;5096070;28;20219;-66
2022/05/08 04:00:40;;;;;;;4.20;0.70;;;24.60;94.70;;;;;;5094960;28;20250;-67
2022/05/08 04:03:08;;;;;;;3.77;0.43;;;24.20;96.20;;;;;;5095924;28;20175;-67
2022/05/08 04:05:35;;;;;;;1.60;0.50;;;24.10;96.30;;;;;;5095998;28;20636;-67
2022/05/08 04:08:03;;;;;;;1.90;0.40;;;23.60;96.50;;;;;;5095776;28;20179;-67
2022/05/08 04:10:33;;;;;;;0.80;0.50;;;23.50;97.00;;;;;;5095774;28;20261;-67
2022/05/08 04:13:01;;;;;;;3.30;0.43;;;23.90;99.90;;;;;;5096051;28;20179;-66
2022/05/08 04:18:14;;;;;;;2.37;1.27;;;24.80;99.70;;;;;;5096052;28;20270;-67
2022/05/08 04:20:42;;;;;;;2.30;0.83;;;24.40;97.20;;;;;;5095814;28;20181;-67
2022/05/08 04:25:55;;;;;;;0.33;0.33;;;24.30;95.20;;;;;;5096254;28;20225;-67
2022/05/08 04:28:23;;;;;;;4.43;0.50;;;24.10;94.20;;;;;;5095643;28;20513;-67
2022/05/08 04:30:51;;;;;;;0.90;0.47;;;24.30;96.60;;;;;;5095511;28;20214;-67
2022/05/08 04:33:19;;;;;;;0.73;0.33;;;24.40;96.70;;;;;;5095678;28;20617;-66
2022/05/08 04:35:46;;;;;;;1.40;0.80;;;24.50;94.10;;;;;;5094262;28;20179;-66
2022/05/08 04:38:15;;;;;;;1.30;0.83;;;24.10;95.90;;;;;;5095645;28;20705;-66
2022/05/08 04:40:43;;;;;;;1.90;0.50;;;24.40;96.70;;;;;;5095458;28;20224;-66
2022/05/08 04:43:10;;;;;;;2.27;0.47;;;23.90;97.70;;;;;;5095438;28;20183;-67
2022/05/08 04:45:38;;;;;;;0.87;0.43;;;24.60;97.30;;;;;;5095486;28;20167;-67
2022/05/08 04:48:06;;;;;;;0.93;0.30;;;24.80;96.20;;;;;;5095554;28;20171;-67
2022/05/08 04:50:34;;;;;;;1.93;0.40;;;24.80;94.70;;;;;;5095353;28;20215;-67
2022/05/08 04:53:02;;;;;;;2.27;0.50;;;24.60;93.00;;;;;;5095511;28;20616;-67
2022/05/08 04:55:29;;;;;;;4.63;0.60;;;24.80;94.00;;;;;;5093923;28;20235;-67
2022/05/08 04:57:57;;;;;;;0.63;0.40;;;24.90;90.90;;;;;;5094941;28;20175;-67
2022/05/08 05:00:26;;;;;;;0.93;0.50;;;24.90;91.20;;;;;;5095130;28;20179;-67
2022/05/08 05:02:54;;;;;;;0.83;0.30;;;24.40;87.50;;;;;;5094885;28;20694;-67
2022/05/08 05:05:22;;;;;;;0.80;0.30;;;24.40;85.00;;;;;;5094677;28;20246;-67
2022/05/08 05:07:49;;;;;;;0.60;0.47;;;24.20;88.40;;;;;;5094846;28;20174;-67
2022/05/08 05:10:17;;;;;;;2.00;0.60;;;23.60;93.50;;;;;;5094817;28;20676;-67
2022/05/08 05:12:45;;;;;;;0.70;0.50;;;23.90;93.60;;;;;;5094829;28;20181;-67
2022/05/08 05:15:13;;;;;;;1.27;0.40;;;23.70;92.20;;;;;;5094697;28;20179;-66
2022/05/08 05:17:41;;;;;;;0.80;0.40;;;23.90;93.30;;;;;;5094631;28;20186;-66
2022/05/08 05:20:09;;;;;;;0.50;0.50;;;23.90;92.40;;;;;;5094508;28;20175;-66
2022/05/08 05:22:37;;;;;;;1.33;0.70;;;24.20;92.40;;;;;;5094486;28;20232;-67
2022/05/08 05:25:05;;;;;;;0.37;0.30;;;24.20;93.10;;;;;;5094425;28;20174;-67
2022/05/08 05:27:32;;;;;;;1.90;0.40;;;23.90;91.20;;;;;;5094406;28;20203;-68
2022/05/08 05:30:03;;;;;;;0.30;0.30;;;24.10;91.00;;;;;;5094300;28;20211;-67
2022/05/08 05:32:30;;;;;;;0.80;0.43;;;24.00;91.70;;;;;;5094579;28;20171;-67
2022/05/08 05:34:58;;;;;;;3.83;0.50;;;23.60;93.60;;;;;;5094309;28;20182;-68
2022/05/08 05:37:26;;;;;;;1.43;0.80;;;22.50;94.40;;;;;;5093768;28;20172;-68
2022/05/08 05:39:53;;;;;;;0.80;0.70;;;22.30;94.30;;;;;;5094179;28;20232;-68
2022/05/08 05:42:21;;;;;;;1.50;0.70;;;22.00;99.10;;;;;;5094027;28;20179;-67
2022/05/08 05:44:49;;;;;;;2.37;0.70;;;22.10;98.70;;;;;;5094368;28;20171;-68
2022/05/08 05:50:03;;;;;;;1.50;0.60;;;22.20;95.00;;;;;;5093874;28;20273;-67
2022/05/08 05:52:30;;;;;;;0.73;0.60;;;21.90;96.60;;;;;;5094125;28;20263;-67
2022/05/08 05:54:59;;;;;;;0.87;0.60;;;21.50;96.40;;;;;;5093775;28;20723;-67
2022/05/08 05:57:27;;;;;;;1.03;0.73;;;21.20;99.90;;;;;;5093775;28;20194;-68
2022/05/08 05:59:54;;;;;;;0.97;0.50;;;21.20;99.90;;;;;;5093918;28;20171;-67
2022/05/08 06:02:22;;;;;;;1.03;0.80;;;21.00;99.90;;;;;;5093696;28;20328;-67
2022/05/08 06:04:50;;;;;;;0.83;0.60;;;20.90;99.90;;;;;;5093728;28;20167;-67
2022/05/08 06:07:17;;;;;;;2.10;0.60;;;20.70;99.90;;;;;;5093325;28;20534;-68
2022/05/08 06:09:45;;;;;;;0.70;0.60;;;20.40;99.90;;;;;;5094032;28;20306;-67
2022/05/08 06:12:13;;;;;;;0.97;0.50;;;20.30;99.90;;;;;;5093460;28;20200;-67
2022/05/08 06:14:41;;;;;;;0.80;0.80;;;20.30;99.90;;;;;;5093761;28;20179;-67
2022/05/08 06:17:09;;;;;;;2.77;0.67;;;20.20;99.90;;;;;;5093438;28;20179;-66
2022/05/08 06:19:37;;;;;;;0.60;0.60;;;20.00;99.90;;;;;;5093699;28;20185;-67
2022/05/08 06:22:05;;;;;;;2.93;0.90;;;20.00;99.90;;;;;;5093527;28;20176;-68
2022/05/08 06:24:34;;;;;;;1.00;0.77;;;19.90;99.90;;;;;;5093599;28;20222;-68
2022/05/08 06:27:02;;;;;;;1.10;0.90;;;19.90;99.90;;;;;;5093302;28;20175;-68
2022/05/08 06:29:30;;;;;;;2.33;1.10;;;19.80;99.90;;;;;;5093341;28;20296;-68
2022/05/08 06:31:58;;;;;;;3.67;1.27;;;19.60;99.90;;;;;;5093389;28;20183;-67
2022/05/08 06:34:29;;;;;;;3.20;1.37;;;19.50;99.90;;;;;;5093526;28;20638;-68
2022/05/08 06:36:56;;;;;;;3.17;1.10;;;19.50;99.90;;;;;;5093346;28;20175;-68
2022/05/08 06:39:24;;;;;;;2.30;1.50;;;19.40;99.90;;;;;;5093272;28;20203;-68
2022/05/08 06:41:52;;;;;;;2.00;1.30;;;19.30;99.90;;;;;;5093063;28;20177;-67
2022/05/08 06:44:19;;;;;;;4.13;1.60;;;19.20;99.90;;;;;;5093136;28;20178;-68
2022/05/08 06:46:47;;;;;;;1.47;1.00;;;19.10;99.90;;;;;;5093167;28;20267;-67
2022/05/08 06:49:15;;;;;;;2.07;1.60;;;18.90;99.90;;;;;;5091837;28;20252;-67
2022/05/08 06:51:46;;;;;;;2.37;1.50;;;18.90;99.90;;;;;;5091833;28;20187;-67
2022/05/08 06:54:13;;;;;;;4.17;1.40;;;18.70;99.90;;;;;;5092139;28;20187;-66
2022/05/08 06:56:41;;;;;;;4.60;1.77;;;18.60;99.90;;;;;;5092798;28;20225;-66
2022/05/08 07:01:56;;;;;;;2.67;1.80;;;18.20;99.90;;;;;;5092852;28;20196;-66
2022/05/08 07:04:23;;;;;;;3.40;2.00;;;18.10;99.90;;;;;;5092712;28;20175;-66
2022/05/08 07:06:52;;;;;;;4.00;1.50;;;18.00;99.90;;;;;;5092415;28;20693;-67
2022/05/08 07:09:20;;;;;;;5.47;1.77;;;17.80;99.90;;;;;;5092490;28;20687;-67
2022/05/08 07:11:48;;;;;;;6.17;2.17;;;17.70;99.90;;;;;;5092392;28;20183;-66
2022/05/08 07:14:16;;;;;;;8.83;7.50;;;17.60;99.90;;;;;;5092994;28;20203;-67
2022/05/08 07:16:45;;;;;;;10.83;6.83;;;17.50;99.90;;;;;;5092933;28;20175;-67
2022/05/08 07:19:12;;;;;;;11.03;5.23;;;17.30;99.90;;;;;;5096141;28;20648;-66
2022/05/08 07:21:40;;;;;;;4.30;2.77;;;17.10;99.90;;;;;;5097049;28;20179;-66
2022/05/08 07:24:09;;;;;;;4.67;3.13;;;16.90;99.90;;;;;;5097036;28;20198;-67
2022/05/08 07:26:37;;;;;;;5.97;2.40;;;16.80;99.90;;;;;;5096463;28;20179;-65
2022/05/08 07:29:06;;;;;;;3.50;2.13;;;16.60;99.90;;;;;;5096529;28;20175;-66
2022/05/08 07:31:34;;;;;;;5.07;2.30;;;16.40;99.90;;;;;;5096727;28;20185;-66
2022/05/08 07:36:47;;;;;;;4.67;1.83;;;16.20;99.90;;;;;;5096960;28;20185;-67
2022/05/08 07:39:15;;;;;;;14.60;7.90;;;16.10;99.90;;;;;;5095322;28;20178;-67
2022/05/08 07:41:42;;;;;;;24.37;11.90;;;16.00;99.90;;;;;;5096380;28;20187;-68
2022/05/08 07:44:10;;;;;;;21.40;11.10;;;15.90;99.90;;;;;;5096923;28;20182;-67
2022/05/08 07:46:38;;;;;;;9.73;5.00;;;15.80;99.90;;;;;;5096825;28;20626;-67
2022/05/08 07:49:05;;;;;;;8.73;5.13;;;15.70;99.90;;;;;;5096128;28;20273;-67
2022/05/08 07:51:33;;;;;;;8.03;3.50;;;15.60;99.90;;;;;;5096793;28;20189;-68
2022/05/08 07:54:01;;;;;;;9.43;2.90;;;15.60;99.90;;;;;;5096590;28;20175;-67
2022/05/08 07:56:29;;;;;;;5.73;3.03;;;15.50;99.90;;;;;;5095302;28;20574;-66
2022/05/08 07:58:56;;;;;;;5.97;2.40;;;15.50;99.90;;;;;;5095989;28;20240;-66
2022/05/08 08:01:24;;;;;;;4.57;2.63;;;15.40;99.90;;;;;;5095803;28;20175;-65
2022/05/08 08:03:52;;;;;;;11.13;4.60;;;15.30;99.90;;;;;;5093282;28;20172;-66
2022/05/08 08:06:19;;;;;;;23.37;10.40;;;15.30;99.90;;;;;;5095416;28;20665;-67
2022/05/08 08:08:47;;;;;;;60.83;27.20;;;15.20;99.90;;;;;;5096302;28;20172;-67
2022/05/08 08:11:15;;;;;;;100.27;44.27;;;15.20;99.90;;;;;;5096067;28;20211;-66
2022/05/08 08:13:42;;;;;;;83.30;36.10;;;15.30;99.90;;;;;;5096146;28;20261;-66
2022/05/08 08:16:10;;;;;;;30.07;14.13;;;15.30;99.90;;;;;;5095838;28;20183;-66
2022/05/08 08:18:42;;;;;;;24.27;11.53;;;15.30;99.90;;;;;;5095877;28;20237;-66
2022/05/08 08:21:12;;;;;;;10.47;5.53;;;15.40;99.90;;;;;;5096005;28;20168;-66
2022/05/08 08:23:42;;;;;;;11.03;4.00;;;15.30;99.90;;;;;;5095100;28;20182;-66
2022/05/08 08:26:12;;;;;;;8.33;4.27;;;15.30;99.90;;;;;;5095809;28;20180;-66
2022/05/08 08:28:40;;;;;;;8.33;3.97;;;15.30;99.90;;;;;;5095532;28;20175;-66
2022/05/08 08:31:09;;;;;;;6.23;3.37;;;15.30;99.90;;;;;;5095411;28;20210;-66
2022/05/08 08:33:41;;;;;;;8.10;3.00;;;15.20;99.90;;;;;;5095933;28;20178;-66
2022/05/08 08:36:09;;;;;;;6.87;3.63;;;15.20;99.90;;;;;;5095668;28;20265;-67
2022/05/08 08:38:38;;;;;;;8.63;3.80;;;15.10;99.90;;;;;;5095802;28;20224;-66
2022/05/08 08:41:07;;;;;;;10.67;4.67;;;15.10;99.90;;;;;;5095757;28;20191;-67
2022/05/08 08:49:24;;;;;;;11.33;6.40;;;15.10;99.90;;;;;;5095871;28;20186;-67
2022/05/08 08:51:52;;;;;;;9.40;5.80;;;15.10;99.90;;;;;;5095581;28;20182;-66
2022/05/08 08:54:21;;;;;;;10.60;4.83;;;15.10;99.90;;;;;;5095514;28;20175;-66
2022/05/08 08:56:50;;;;;;;7.53;4.27;;;15.20;99.90;;;;;;5095273;28;20596;-67
2022/05/08 08:59:24;;;;;;;9.20;4.17;;;15.10;99.90;;;;;;5095164;28;20656;-66
2022/05/08 09:01:52;;;;;;;6.93;3.73;;;15.10;99.90;;;;;;5093843;28;20187;-67
2022/05/08 09:04:20;;;;;;;10.07;4.30;;;15.10;99.90;;;;;;5095204;28;20633;-66
2022/05/08 09:06:48;;;;;;;7.60;4.07;;;15.10;99.90;;;;;;5095144;28;20246;-66
2022/05/08 09:09:28;;;;;;;9.37;4.50;;;15.10;99.90;;;;;;5095000;28;20178;-67
2022/05/08 09:11:58;;;;;;;8.60;4.40;;;15.10;99.90;;;;;;5094943;28;20170;-66
2022/05/08 09:14:36;;;;;;;8.43;4.73;;;15.10;99.90;;;;;;5094945;28;20198;-66
2022/05/08 09:17:06;;;;;;;7.20;4.57;;;15.00;99.90;;;;;;5094805;28;20329;-66
2022/05/08 09:19:39;;;;;;;7.73;4.53;;;15.00;99.90;;;;;;5094330;28;20240;-66
2022/05/08 09:22:11;;;;;;;7.97;4.87;;;14.90;99.90;;;;;;5076499;28;20187;-66
2022/05/08 09:24:52;;;;;;;5.50;3.87;;;14.80;99.90;;;;;;5093788;28;20258;-66
2022/05/08 09:27:20;;;;;;;9.57;4.87;;;14.70;99.90;;;;;;5094806;28;20171;-67
2022/05/08 09:29:48;;;;;;;6.83;4.00;;;14.50;99.90;;;;;;5094620;28;20231;-68
2022/05/08 09:32:42;;;;;;;9.13;4.67;;;14.50;99.90;;;;;;5094656;28;20166;-67
2022/05/08 09:35:09;;;;;;;7.17;4.40;;;14.30;99.90;;;;;;5094799;28;20536;-66
2022/05/08 09:37:56;;;;;;;8.93;5.00;;;14.20;99.90;;;;;;5094596;28;20526;-67
2022/05/08 09:40:24;;;;;;;9.53;5.27;;;14.20;99.90;;;;;;5094666;28;20176;-66
2022/05/08 09:42:51;;;;;;;8.80;5.70;;;14.00;99.90;;;;;;5094373;28;20534;-67
2022/05/08 09:45:19;;;;;;;11.60;5.63;;;14.00;99.90;;;;;;5094391;28;20170;-66
2022/05/08 09:47:51;;;;;;;8.57;5.60;;;13.90;99.90;;;;;;5094424;28;20301;-66
2022/05/08 09:50:19;;;;;;;9.40;5.57;;;13.80;99.90;;;;;;5094227;28;20267;-66
2022/05/08 09:52:47;;;;;;;12.60;5.60;;;13.70;99.90;;;;;;5094199;28;20178;-66
2022/05/08 09:55:16;;;;;;;11.83;5.50;;;13.60;99.90;;;;;;5093498;28;20222;-65
2022/05/08 09:57:44;;;;;;;8.77;5.00;;;13.60;99.90;;;;;;5094210;28;20182;-66
2022/05/08 10:00:12;;;;;;;8.83;4.77;;;13.50;99.90;;;;;;5093896;28;20232;-64
2022/05/08 10:02:43;;;;;;;10.57;5.30;;;13.40;99.90;;;;;;5093705;28;20277;-66
2022/05/08 10:05:12;;;;;;;10.00;5.07;;;13.30;99.90;;;;;;5093803;28;20186;-66
2022/05/08 10:07:41;;;;;;;10.47;5.10;;;13.30;99.90;;;;;;5093618;28;20195;-66
2022/05/08 10:15:48;;;;;;;7.70;4.70;;;13.10;99.90;;;;;;5093490;28;20192;-66
2022/05/08 10:18:30;;;;;;;8.00;4.90;;;13.00;99.90;;;;;;5094126;28;20286;-67
2022/05/08 10:21:12;;;;;;;8.57;4.70;;;12.90;99.90;;;;;;5092275;28;20653;-66
2022/05/08 10:23:46;;;;;;;11.13;5.20;;;12.90;99.90;;;;;;5093568;28;20242;-66
2022/05/08 10:26:22;;;;;;;6.67;4.77;;;12.80;99.90;;;;;;5093915;28;20183;-66
2022/05/08 10:29:12;;;;;;;8.40;4.87;;;12.70;99.90;;;;;;5093702;28;20178;-66
2022/05/08 10:31:50;;;;;;;9.93;5.13;;;12.70;99.90;;;;;;5092556;28;20191;-66
2022/05/08 10:34:34;;;;;;;7.50;4.77;;;12.60;99.90;;;;;;5092852;28;20577;-66
2022/05/08 10:37:14;;;;;;;7.50;5.00;;;12.50;99.90;;;;;;5090736;28;20184;-66
2022/05/08 10:39:48;;;;;;;7.57;4.80;;;12.50;99.90;;;;;;5093632;28;20208;-67
2022/05/08 10:44:59;;;;;;;7.60;4.60;;;12.40;99.90;;;;;;5090402;28;20261;-67
2022/05/08 10:47:41;;;;;;;6.73;4.50;;;12.40;99.90;;;;;;5093422;28;20173;-69
2022/05/08 10:50:13;;;;;;;9.17;3.83;;;12.30;99.90;;;;;;5093663;28;20200;-66
2022/05/08 10:52:45;;;;;;;8.77;4.57;;;12.30;99.90;;;;;;5093357;28;20188;-67
2022/05/08 10:55:16;;;;;;;8.90;4.47;;;12.30;99.90;;;;;;5093309;28;20218;-66
2022/05/08 10:57:45;;;;;;;10.57;4.77;;;12.20;99.90;;;;;;5093370;28;20647;-66
2022/05/08 11:00:24;;;;;;;8.43;4.20;;;12.20;99.90;;;;;;5093288;28;20174;-66
2022/05/08 11:02:57;;;;;;;4.17;3.60;;;12.10;99.90;;;;;;5093418;28;20218;-67
2022/05/08 11:05:28;;;;;;;6.70;4.30;;;12.10;99.90;;;;;;5093208;28;20182;-66
2022/05/08 11:07:56;;;;;;;7.80;4.97;;;12.00;99.90;;;;;;5093751;28;20223;-66
2022/05/08 11:10:29;;;;;;;6.40;4.50;;;12.00;99.90;;;;;;5093364;28;20249;-67
2022/05/08 11:13:02;;;;;;;8.30;5.20;;;12.00;99.90;;;;;;5093265;28;20179;-66
2022/05/08 11:15:36;;;;;;;10.23;4.93;;;11.90;99.90;;;;;;5093352;28;20171;-67
2022/05/08 11:18:10;;;;;;;9.43;4.77;;;11.90;99.90;;;;;;5093676;28;20231;-66
2022/05/08 11:20:45;;;;;;;9.63;5.20;;;11.80;99.90;;;;;;5093132;28;20662;-66
2022/05/08 11:23:14;;;;;;;6.20;4.30;;;11.80;99.90;;;;;;5093101;28;20245;-65
2022/05/08 11:25:49;;;;;;;11.23;5.23;;;11.80;99.90;;;;;;5092997;28;20576;-65
2022/05/08 11:28:19;;;;;;;10.97;4.37;;;11.80;99.90;;;;;;5091968;28;20176;-65
2022/05/08 11:30:48;;;;;;;11.07;4.73;;;11.80;99.90;;;;;;5093151;28;20216;-65
2022/05/08 11:36:07;;;;;;;10.80;6.00;;;11.80;99.90;;;;;;5093196;28;20238;-66
2022/05/08 11:38:52;;;;;;;7.10;5.33;;;11.70;99.90;;;;;;5093188;28;20207;-65
2022/05/08 11:41:28;;;;;;;9.20;5.37;;;11.70;99.90;;;;;;5091553;28;20183;-65
2022/05/08 11:43:57;;;;;;;10.20;6.00;;;11.70;99.90;;;;;;5093284;28;20515;-66
2022/05/08 11:46:36;;;;;;;10.43;5.80;;;11.60;99.90;;;;;;5092745;28;20181;-65
2022/05/08 11:49:17;;;;;;;9.37;5.23;;;11.60;99.90;;;;;;5090409;28;20182;-65
2022/05/08 11:51:48;;;;;;;8.83;5.50;;;11.60;99.90;;;;;;5090516;28;20188;-65
2022/05/08 11:54:30;;;;;;;8.67;5.37;;;11.60;99.90;;;;;;5092411;28;20623;-64
2022/05/08 11:57:14;;;;;;;11.53;5.70;;;11.60;99.90;;;;;;5089450;28;20219;-65
2022/05/08 11:59:44;;;;;;;11.47;5.50;;;11.60;99.90;;;;;;5090225;28;20183;-65
2022/05/08 12:02:13;;;;;;;10.03;5.20;;;11.60;99.90;;;;;;5092133;28;20522;-64
2022/05/08 12:04:43;;;;;;;8.53;5.37;;;11.60;99.90;;;;;;5092068;28;20259;-65
2022/05/08 12:07:13;;;;;;;7.57;5.03;;;11.60;99.90;;;;;;5096279;28;20182;-66
2022/05/08 12:09:49;;;;;;;8.77;5.13;;;11.50;99.90;;;;;;5096347;28;20274;-66
2022/05/08 12:12:33;;;;;;;7.23;4.40;;;11.40;99.90;;;;;;5096439;28;20177;-66
2022/05/08 12:15:15;;;;;;;8.20;5.07;;;11.40;99.90;;;;;;5096274;28;20187;-66
2022/05/08 12:17:43;;;;;;;7.50;4.63;;;11.30;99.90;;;;;;5096757;28;20176;-66
2022/05/08 12:20:11;;;;;;;9.33;4.47;;;11.20;99.90;;;;;;5096307;28;20174;-66
2022/05/08 12:22:39;;;;;;;9.40;5.17;;;11.20;99.90;;;;;;5095974;28;20715;-66
2022/05/08 12:25:08;;;;;;;6.97;4.07;;;11.10;99.90;;;;;;5096012;28;20176;-66
2022/05/08 12:27:36;;;;;;;4.70;3.30;;;11.10;99.90;;;;;;5096032;28;20227;-66
2022/05/08 12:30:10;;;;;;;6.13;3.67;;;11.10;99.90;;;;;;5095726;28;20247;-66
2022/05/08 12:32:39;;;;;;;6.43;4.57;;;11.20;99.90;;;;;;5095979;28;20177;-66
2022/05/08 12:35:10;;;;;;;5.77;3.97;;;11.20;99.90;;;;;;5096018;28;20209;-66
2022/05/08 12:37:38;;;;;;;6.23;3.90;;;11.20;99.90;;;;;;5095784;28;20172;-66
2022/05/08 12:40:10;;;;;;;7.30;4.03;;;11.20;99.90;;;;;;5095715;28;20170;-66
2022/05/08 12:42:38;;;;;;;8.83;4.63;;;11.30;99.90;;;;;;5095691;28;20233;-66
2022/05/08 12:45:06;;;;;;;8.90;4.67;;;11.30;99.90;;;;;;5095851;28;20173;-66
2022/05/08 12:47:34;;;;;;;7.90;4.80;;;11.40;99.90;;;;;;5095506;28;20603;-66
2022/05/08 12:50:02;;;;;;;9.00;5.33;;;11.50;99.90;;;;;;5095447;28;20254;-66
2022/05/08 12:52:29;;;;;;;12.63;6.30;;;11.50;99.90;;;;;;5095586;28;20175;-66
2022/05/08 12:54:57;;;;;;;9.43;5.40;;;11.40;99.90;;;;;;5095313;28;20348;-66
2022/05/08 13:00:11;;;;;;;8.73;5.03;;;11.40;99.90;;;;;;5095676;28;20299;-65
2022/05/08 13:02:39;;;;;;;8.20;4.90;;;11.30;99.90;;;;;;5095237;28;20642;-65
2022/05/08 13:05:08;;;;;;;11.17;4.50;;;11.30;99.90;;;;;;5095335;28;20646;-65
2022/05/08 13:07:35;;;;;;;10.50;4.63;;;11.20;99.90;;;;;;5095214;28;20257;-65
2022/05/08 13:10:04;;;;;;;8.77;4.37;;;11.20;99.90;;;;;;5095094;28;20212;-65
2022/05/08 13:12:31;;;;;;;6.43;4.13;;;11.10;99.90;;;;;;5095373;28;20176;-64
2022/05/08 13:14:59;;;;;;;7.80;4.50;;;11.10;99.90;;;;;;5092691;28;20206;-67
2022/05/08 13:17:26;;;;;;;7.33;3.60;;;11.10;99.90;;;;;;5093780;28;20542;-66
2022/05/08 13:19:58;;;;;;;7.00;4.00;;;11.10;99.90;;;;;;5093312;28;20280;-66
2022/05/08 13:22:26;;;;;;;6.83;3.87;;;11.20;99.90;;;;;;5094818;28;20180;-66
2022/05/08 13:24:53;;;;;;;7.63;3.50;;;11.30;99.90;;;;;;5094409;28;20185;-65
2022/05/08 13:27:21;;;;;;;7.80;3.43;;;11.30;99.90;;;;;;5095093;28;20233;-64
2022/05/08 13:29:49;;;;;;;5.53;3.77;;;11.40;99.90;;;;;;5094783;28;20298;-64
2022/05/08 13:32:16;;;;;;;9.07;3.47;;;11.50;99.90;;;;;;5094846;28;20183;-64
2022/05/08 13:34:44;;;;;;;7.27;3.87;;;11.60;99.90;;;;;;5094382;28;20645;-65
2022/05/08 13:37:12;;;;;;;5.47;3.37;;;11.70;99.90;;;;;;5094582;28;20261;-66
2022/05/08 13:39:40;;;;;;;8.93;4.07;;;11.80;99.90;;;;;;5094429;28;20191;-66